sensor_id;sensor_type;location;lat;lon;timestamp;P1;durP1;ratioP1;P2;durP2;ratioP2
42118;SDS011;27783;42.782;23.274;2023-01-30T00:00:28;36.42;;;18.92;;
42118;SDS011;27783;42.782;23.274;2023-01-30T00:02:54;31.27;;;17.17;;
42118;SDS011;27783;42.782;23.274;2023-01-30T00:05:19;25.23;;;15.15;;
42118;SDS011;27783;42.782;23.274;2023-01-30T00:07:45;41.67;;;21.20;;
42118;SDS011;27783;42.782;23.274;2023-01-30T00:10:12;29.25;;;15.40;;
42118;SDS011;27783;42.782;23.274;2023-01-30T00:12:37;32.88;;;17.10;;
42118;SDS011;27783;42.782;23.274;2023-01-30T00:15:03;27.50;;;17.38;;
42118;SDS011;27783;42.782;23.274;2023-01-30T00:17:30;37.33;;;16.75;;
42118;SDS011;27783;42.782;23.274;2023-01-30T00:19:56;24.38;;;13.48;;
42118;SDS011;27783;42.782;23.274;2023-01-30T00:22:23;23.52;;;14.98;;
42118;SDS011;27783;42.782;23.274;2023-01-30T00:24:49;25.90;;;15.07;;
42118;SDS011;27783;42.782;23.274;2023-01-30T00:27:16;23.83;;;12.68;;
42118;SDS011;27783;42.782;23.274;2023-01-30T00:29:41;28.92;;;14.23;;
42118;SDS011;27783;42.782;23.274;2023-01-30T00:32:06;21.92;;;14.50;;
42118;SDS011;27783;42.782;23.274;2023-01-30T00:34:32;24.30;;;12.85;;
42118;SDS011;27783;42.782;23.274;2023-01-30T00:36:59;20.70;;;12.23;;
42118;SDS011;27783;42.782;23.274;2023-01-30T00:39:24;19.10;;;12.05;;
42118;SDS011;27783;42.782;23.274;2023-01-30T00:41:50;20.00;;;12.50;;
42118;SDS011;27783;42.782;23.274;2023-01-30T00:44:36;24.10;;;13.50;;
42118;SDS011;27783;42.782;23.274;2023-01-30T00:47:20;24.85;;;13.05;;
42118;SDS011;27783;42.782;23.274;2023-01-30T00:49:47;22.42;;;12.68;;
42118;SDS011;27783;42.782;23.274;2023-01-30T00:52:12;20.88;;;11.57;;
42118;SDS011;27783;42.782;23.274;2023-01-30T00:54:38;20.50;;;12.48;;
42118;SDS011;27783;42.782;23.274;2023-01-30T00:57:03;20.33;;;11.77;;
42118;SDS011;27783;42.782;23.274;2023-01-30T00:59:28;17.95;;;11.18;;
42118;SDS011;27783;42.782;23.274;2023-01-30T01:01:54;19.65;;;11.63;;
42118;SDS011;27783;42.782;23.274;2023-01-30T01:04:19;22.30;;;11.43;;
42118;SDS011;27783;42.782;23.274;2023-01-30T01:06:45;20.25;;;11.27;;
42118;SDS011;27783;42.782;23.274;2023-01-30T01:09:11;17.65;;;12.35;;
42118;SDS011;27783;42.782;23.274;2023-01-30T01:11:37;14.80;;;10.25;;
42118;SDS011;27783;42.782;23.274;2023-01-30T01:14:04;17.13;;;9.15;;
42118;SDS011;27783;42.782;23.274;2023-01-30T01:16:30;24.73;;;11.70;;
42118;SDS011;27783;42.782;23.274;2023-01-30T01:18:57;18.58;;;11.55;;
42118;SDS011;27783;42.782;23.274;2023-01-30T01:21:24;16.55;;;9.55;;
42118;SDS011;27783;42.782;23.274;2023-01-30T01:23:50;17.17;;;11.35;;
42118;SDS011;27783;42.782;23.274;2023-01-30T01:26:18;23.35;;;11.85;;
42118;SDS011;27783;42.782;23.274;2023-01-30T01:28:44;21.67;;;11.02;;
42118;SDS011;27783;42.782;23.274;2023-01-30T01:31:11;20.30;;;11.77;;
42118;SDS011;27783;42.782;23.274;2023-01-30T01:33:38;20.08;;;9.88;;
42118;SDS011;27783;42.782;23.274;2023-01-30T01:36:04;16.98;;;9.10;;
42118;SDS011;27783;42.782;23.274;2023-01-30T01:38:30;16.52;;;10.32;;
42118;SDS011;27783;42.782;23.274;2023-01-30T01:40:55;21.00;;;11.07;;
42118;SDS011;27783;42.782;23.274;2023-01-30T01:44:19;19.30;;;10.43;;
42118;SDS011;27783;42.782;23.274;2023-01-30T01:46:37;20.10;;;10.57;;
42118;SDS011;27783;42.782;23.274;2023-01-30T01:49:26;23.38;;;12.73;;
42118;SDS011;27783;42.782;23.274;2023-01-30T01:51:59;23.83;;;11.93;;
42118;SDS011;27783;42.782;23.274;2023-01-30T01:56:51;16.40;;;10.30;;
42118;SDS011;27783;42.782;23.274;2023-01-30T02:01:51;17.20;;;11.20;;
42118;SDS011;27783;42.782;23.274;2023-01-30T02:04:20;20.80;;;10.98;;
42118;SDS011;27783;42.782;23.274;2023-01-30T02:07:07;16.88;;;9.73;;
42118;SDS011;27783;42.782;23.274;2023-01-30T02:09:34;20.38;;;10.52;;
42118;SDS011;27783;42.782;23.274;2023-01-30T02:11:59;21.37;;;11.07;;
42118;SDS011;27783;42.782;23.274;2023-01-30T02:14:28;18.10;;;11.32;;
42118;SDS011;27783;42.782;23.274;2023-01-30T02:16:57;16.52;;;10.38;;
42118;SDS011;27783;42.782;23.274;2023-01-30T02:31:01;24.42;;;11.02;;
42118;SDS011;27783;42.782;23.274;2023-01-30T02:36:36;20.63;;;11.00;;
42118;SDS011;27783;42.782;23.274;2023-01-30T02:43:27;22.90;;;13.20;;
42118;SDS011;27783;42.782;23.274;2023-01-30T02:45:33;19.23;;;11.15;;
42118;SDS011;27783;42.782;23.274;2023-01-30T02:48:10;17.98;;;11.63;;
42118;SDS011;27783;42.782;23.274;2023-01-30T02:50:42;30.48;;;14.75;;
42118;SDS011;27783;42.782;23.274;2023-01-30T02:53:11;20.92;;;11.52;;
42118;SDS011;27783;42.782;23.274;2023-01-30T02:55:39;21.67;;;13.27;;
42118;SDS011;27783;42.782;23.274;2023-01-30T02:58:06;23.58;;;14.23;;
42118;SDS011;27783;42.782;23.274;2023-01-30T03:03:31;21.20;;;11.50;;
42118;SDS011;27783;42.782;23.274;2023-01-30T03:06:15;18.80;;;11.65;;
42118;SDS011;27783;42.782;23.274;2023-01-30T03:12:08;29.13;;;14.18;;
42118;SDS011;27783;42.782;23.274;2023-01-30T03:14:45;26.67;;;13.40;;
42118;SDS011;27783;42.782;23.274;2023-01-30T03:17:17;25.17;;;13.88;;
42118;SDS011;27783;42.782;23.274;2023-01-30T03:19:46;26.10;;;14.93;;
42118;SDS011;27783;42.782;23.274;2023-01-30T03:22:12;22.38;;;14.48;;
42118;SDS011;27783;42.782;23.274;2023-01-30T03:24:37;28.23;;;14.88;;
42118;SDS011;27783;42.782;23.274;2023-01-30T03:27:04;23.40;;;12.23;;
42118;SDS011;27783;42.782;23.274;2023-01-30T03:29:34;26.95;;;13.98;;
42118;SDS011;27783;42.782;23.274;2023-01-30T03:32:00;28.27;;;15.35;;
42118;SDS011;27783;42.782;23.274;2023-01-30T03:34:25;25.23;;;15.20;;
42118;SDS011;27783;42.782;23.274;2023-01-30T03:36:51;23.58;;;13.82;;
42118;SDS011;27783;42.782;23.274;2023-01-30T03:39:17;24.88;;;14.13;;
42118;SDS011;27783;42.782;23.274;2023-01-30T03:41:43;29.33;;;16.40;;
42118;SDS011;27783;42.782;23.274;2023-01-30T03:44:08;21.80;;;13.32;;
42118;SDS011;27783;42.782;23.274;2023-01-30T03:46:35;26.67;;;14.20;;
42118;SDS011;27783;42.782;23.274;2023-01-30T03:49:00;26.23;;;14.50;;
42118;SDS011;27783;42.782;23.274;2023-01-30T03:51:26;30.55;;;15.20;;
42118;SDS011;27783;42.782;23.274;2023-01-30T03:53:53;24.90;;;15.10;;
42118;SDS011;27783;42.782;23.274;2023-01-30T03:56:19;24.13;;;12.95;;
42118;SDS011;27783;42.782;23.274;2023-01-30T03:58:46;19.98;;;12.80;;
42118;SDS011;27783;42.782;23.274;2023-01-30T04:01:12;29.23;;;15.35;;
42118;SDS011;27783;42.782;23.274;2023-01-30T04:03:37;27.83;;;14.02;;
42118;SDS011;27783;42.782;23.274;2023-01-30T04:06:03;20.42;;;13.02;;
42118;SDS011;27783;42.782;23.274;2023-01-30T04:08:29;27.48;;;13.30;;
42118;SDS011;27783;42.782;23.274;2023-01-30T04:10:55;25.88;;;13.65;;
42118;SDS011;27783;42.782;23.274;2023-01-30T04:13:21;19.73;;;12.15;;
42118;SDS011;27783;42.782;23.274;2023-01-30T04:15:48;19.55;;;12.95;;
42118;SDS011;27783;42.782;23.274;2023-01-30T04:18:13;19.25;;;10.75;;
42118;SDS011;27783;42.782;23.274;2023-01-30T04:20:39;25.35;;;13.63;;
42118;SDS011;27783;42.782;23.274;2023-01-30T04:23:05;22.20;;;12.40;;
42118;SDS011;27783;42.782;23.274;2023-01-30T04:25:31;28.58;;;14.63;;
42118;SDS011;27783;42.782;23.274;2023-01-30T04:27:57;29.23;;;15.93;;
42118;SDS011;27783;42.782;23.274;2023-01-30T04:30:23;28.65;;;14.93;;
42118;SDS011;27783;42.782;23.274;2023-01-30T04:32:48;25.40;;;12.48;;
42118;SDS011;27783;42.782;23.274;2023-01-30T04:35:14;23.10;;;11.77;;
42118;SDS011;27783;42.782;23.274;2023-01-30T04:37:39;22.67;;;11.15;;
42118;SDS011;27783;42.782;23.274;2023-01-30T04:40:05;20.25;;;11.68;;
42118;SDS011;27783;42.782;23.274;2023-01-30T04:42:32;31.63;;;17.27;;
42118;SDS011;27783;42.782;23.274;2023-01-30T04:44:58;21.35;;;12.23;;
42118;SDS011;27783;42.782;23.274;2023-01-30T04:47:23;21.00;;;12.60;;
42118;SDS011;27783;42.782;23.274;2023-01-30T04:49:48;28.02;;;15.07;;
42118;SDS011;27783;42.782;23.274;2023-01-30T04:52:14;26.15;;;13.00;;
42118;SDS011;27783;42.782;23.274;2023-01-30T04:54:39;27.02;;;14.82;;
42118;SDS011;27783;42.782;23.274;2023-01-30T04:57:05;26.80;;;14.18;;
42118;SDS011;27783;42.782;23.274;2023-01-30T04:59:30;25.13;;;14.88;;
42118;SDS011;27783;42.782;23.274;2023-01-30T05:01:55;28.83;;;16.30;;
42118;SDS011;27783;42.782;23.274;2023-01-30T05:04:21;32.00;;;16.13;;
42118;SDS011;27783;42.782;23.274;2023-01-30T05:06:47;28.20;;;14.73;;
42118;SDS011;27783;42.782;23.274;2023-01-30T05:09:12;71.60;;;33.17;;
42118;SDS011;27783;42.782;23.274;2023-01-30T05:11:38;32.03;;;17.17;;
42118;SDS011;27783;42.782;23.274;2023-01-30T05:14:03;36.25;;;17.52;;
42118;SDS011;27783;42.782;23.274;2023-01-30T05:16:29;33.05;;;15.57;;
42118;SDS011;27783;42.782;23.274;2023-01-30T05:18:55;31.45;;;15.45;;
42118;SDS011;27783;42.782;23.274;2023-01-30T05:21:22;31.02;;;15.10;;
42118;SDS011;27783;42.782;23.274;2023-01-30T05:23:52;36.75;;;17.27;;
42118;SDS011;27783;42.782;23.274;2023-01-30T05:26:18;39.13;;;18.75;;
42118;SDS011;27783;42.782;23.274;2023-01-30T05:28:44;36.17;;;17.25;;
42118;SDS011;27783;42.782;23.274;2023-01-30T05:31:17;30.20;;;16.38;;
42118;SDS011;27783;42.782;23.274;2023-01-30T05:33:44;31.23;;;15.98;;
42118;SDS011;27783;42.782;23.274;2023-01-30T05:36:13;32.20;;;17.30;;
42118;SDS011;27783;42.782;23.274;2023-01-30T05:38:41;35.08;;;16.52;;
42118;SDS011;27783;42.782;23.274;2023-01-30T05:41:08;32.00;;;16.48;;
42118;SDS011;27783;42.782;23.274;2023-01-30T05:43:35;36.83;;;19.30;;
42118;SDS011;27783;42.782;23.274;2023-01-30T05:46:01;43.63;;;20.42;;
42118;SDS011;27783;42.782;23.274;2023-01-30T05:48:27;40.00;;;17.85;;
42118;SDS011;27783;42.782;23.274;2023-01-30T05:50:54;85.68;;;38.95;;
42118;SDS011;27783;42.782;23.274;2023-01-30T05:53:22;95.55;;;42.20;;
42118;SDS011;27783;42.782;23.274;2023-01-30T05:55:55;93.88;;;43.28;;
42118;SDS011;27783;42.782;23.274;2023-01-30T05:58:25;173.00;;;76.82;;
42118;SDS011;27783;42.782;23.274;2023-01-30T06:00:51;51.28;;;25.48;;
42118;SDS011;27783;42.782;23.274;2023-01-30T06:03:16;95.93;;;49.72;;
42118;SDS011;27783;42.782;23.274;2023-01-30T06:05:43;57.75;;;27.95;;
42118;SDS011;27783;42.782;23.274;2023-01-30T06:08:08;74.25;;;36.67;;
42118;SDS011;27783;42.782;23.274;2023-01-30T06:10:34;86.07;;;42.47;;
42118;SDS011;27783;42.782;23.274;2023-01-30T06:13:00;63.78;;;31.70;;
42118;SDS011;27783;42.782;23.274;2023-01-30T06:15:25;55.88;;;29.17;;
42118;SDS011;27783;42.782;23.274;2023-01-30T06:17:50;50.20;;;27.25;;
42118;SDS011;27783;42.782;23.274;2023-01-30T06:20:16;66.88;;;33.22;;
42118;SDS011;27783;42.782;23.274;2023-01-30T06:22:41;67.13;;;37.38;;
42118;SDS011;27783;42.782;23.274;2023-01-30T06:25:08;40.92;;;20.05;;
42118;SDS011;27783;42.782;23.274;2023-01-30T06:27:33;43.95;;;20.77;;
42118;SDS011;27783;42.782;23.274;2023-01-30T06:29:59;67.88;;;37.65;;
42118;SDS011;27783;42.782;23.274;2023-01-30T06:32:25;48.67;;;23.30;;
42118;SDS011;27783;42.782;23.274;2023-01-30T06:34:51;89.53;;;46.38;;
42118;SDS011;27783;42.782;23.274;2023-01-30T06:37:17;50.40;;;24.35;;
42118;SDS011;27783;42.782;23.274;2023-01-30T06:39:43;48.72;;;21.27;;
42118;SDS011;27783;42.782;23.274;2023-01-30T06:42:08;49.20;;;24.65;;
42118;SDS011;27783;42.782;23.274;2023-01-30T06:44:33;57.35;;;28.35;;
42118;SDS011;27783;42.782;23.274;2023-01-30T06:47:00;59.33;;;26.08;;
42118;SDS011;27783;42.782;23.274;2023-01-30T06:49:26;56.22;;;24.02;;
42118;SDS011;27783;42.782;23.274;2023-01-30T06:51:54;46.92;;;21.63;;
42118;SDS011;27783;42.782;23.274;2023-01-30T06:56:45;54.20;;;21.77;;
42118;SDS011;27783;42.782;23.274;2023-01-30T06:59:12;55.15;;;22.80;;
42118;SDS011;27783;42.782;23.274;2023-01-30T07:01:37;58.13;;;24.70;;
42118;SDS011;27783;42.782;23.274;2023-01-30T07:04:04;70.38;;;34.83;;
42118;SDS011;27783;42.782;23.274;2023-01-30T07:06:30;56.25;;;26.77;;
42118;SDS011;27783;42.782;23.274;2023-01-30T07:08:57;52.08;;;21.48;;
42118;SDS011;27783;42.782;23.274;2023-01-30T07:11:24;58.67;;;25.35;;
42118;SDS011;27783;42.782;23.274;2023-01-30T07:13:50;58.97;;;27.13;;
42118;SDS011;27783;42.782;23.274;2023-01-30T07:16:16;49.10;;;25.23;;
42118;SDS011;27783;42.782;23.274;2023-01-30T07:18:42;78.55;;;40.33;;
42118;SDS011;27783;42.782;23.274;2023-01-30T07:21:07;50.83;;;24.58;;
42118;SDS011;27783;42.782;23.274;2023-01-30T07:23:32;54.65;;;24.50;;
42118;SDS011;27783;42.782;23.274;2023-01-30T07:25:58;51.65;;;22.60;;
42118;SDS011;27783;42.782;23.274;2023-01-30T07:28:23;49.83;;;23.77;;
42118;SDS011;27783;42.782;23.274;2023-01-30T07:30:48;49.88;;;23.05;;
42118;SDS011;27783;42.782;23.274;2023-01-30T07:33:17;54.75;;;23.98;;
42118;SDS011;27783;42.782;23.274;2023-01-30T07:35:42;45.03;;;24.27;;
42118;SDS011;27783;42.782;23.274;2023-01-30T07:38:07;45.50;;;23.35;;
42118;SDS011;27783;42.782;23.274;2023-01-30T07:40:33;39.47;;;22.27;;
42118;SDS011;27783;42.782;23.274;2023-01-30T07:42:59;42.25;;;23.30;;
42118;SDS011;27783;42.782;23.274;2023-01-30T07:45:27;42.90;;;22.55;;
42118;SDS011;27783;42.782;23.274;2023-01-30T07:48:14;42.60;;;22.48;;
42118;SDS011;27783;42.782;23.274;2023-01-30T07:50:42;51.15;;;26.27;;
42118;SDS011;27783;42.782;23.274;2023-01-30T07:53:09;44.42;;;22.83;;
42118;SDS011;27783;42.782;23.274;2023-01-30T07:55:36;48.92;;;24.50;;
42118;SDS011;27783;42.782;23.274;2023-01-30T07:58:01;52.05;;;26.40;;
42118;SDS011;27783;42.782;23.274;2023-01-30T08:00:28;42.42;;;20.27;;
42118;SDS011;27783;42.782;23.274;2023-01-30T08:02:54;44.00;;;22.50;;
42118;SDS011;27783;42.782;23.274;2023-01-30T08:05:19;42.35;;;21.05;;
42118;SDS011;27783;42.782;23.274;2023-01-30T08:07:45;38.38;;;20.17;;
42118;SDS011;27783;42.782;23.274;2023-01-30T08:10:11;33.88;;;17.92;;
42118;SDS011;27783;42.782;23.274;2023-01-30T08:12:37;38.28;;;20.40;;
42118;SDS011;27783;42.782;23.274;2023-01-30T08:15:03;35.03;;;16.98;;
42118;SDS011;27783;42.782;23.274;2023-01-30T08:17:29;38.65;;;18.95;;
42118;SDS011;27783;42.782;23.274;2023-01-30T08:19:55;37.58;;;20.42;;
42118;SDS011;27783;42.782;23.274;2023-01-30T08:22:20;41.65;;;21.35;;
42118;SDS011;27783;42.782;23.274;2023-01-30T08:24:45;36.90;;;21.80;;
42118;SDS011;27783;42.782;23.274;2023-01-30T08:27:11;31.63;;;18.48;;
42118;SDS011;27783;42.782;23.274;2023-01-30T08:29:36;38.65;;;20.67;;
42118;SDS011;27783;42.782;23.274;2023-01-30T08:32:02;39.13;;;19.67;;
42118;SDS011;27783;42.782;23.274;2023-01-30T08:34:27;36.58;;;19.13;;
42118;SDS011;27783;42.782;23.274;2023-01-30T08:36:52;28.48;;;16.70;;
42118;SDS011;27783;42.782;23.274;2023-01-30T08:39:18;36.25;;;19.60;;
42118;SDS011;27783;42.782;23.274;2023-01-30T08:41:43;27.13;;;14.85;;
42118;SDS011;27783;42.782;23.274;2023-01-30T08:44:09;29.10;;;17.73;;
42118;SDS011;27783;42.782;23.274;2023-01-30T08:46:36;27.02;;;15.20;;
42118;SDS011;27783;42.782;23.274;2023-01-30T08:49:02;25.83;;;14.63;;
42118;SDS011;27783;42.782;23.274;2023-01-30T08:51:27;24.90;;;16.55;;
42118;SDS011;27783;42.782;23.274;2023-01-30T08:53:53;28.80;;;16.17;;
42118;SDS011;27783;42.782;23.274;2023-01-30T08:56:18;28.80;;;16.35;;
42118;SDS011;27783;42.782;23.274;2023-01-30T08:58:43;26.77;;;17.67;;
42118;SDS011;27783;42.782;23.274;2023-01-30T09:01:10;19.42;;;12.38;;
42118;SDS011;27783;42.782;23.274;2023-01-30T09:03:36;22.67;;;14.30;;
42118;SDS011;27783;42.782;23.274;2023-01-30T09:06:01;21.55;;;14.18;;
42118;SDS011;27783;42.782;23.274;2023-01-30T09:08:27;25.58;;;14.68;;
42118;SDS011;27783;42.782;23.274;2023-01-30T09:10:56;28.60;;;16.35;;
42118;SDS011;27783;42.782;23.274;2023-01-30T09:13:25;30.40;;;19.30;;
42118;SDS011;27783;42.782;23.274;2023-01-30T09:15:51;28.13;;;18.33;;
42118;SDS011;27783;42.782;23.274;2023-01-30T09:18:17;34.45;;;19.42;;
42118;SDS011;27783;42.782;23.274;2023-01-30T09:20:45;31.30;;;20.27;;
42118;SDS011;27783;42.782;23.274;2023-01-30T09:23:31;46.90;;;24.67;;
42118;SDS011;27783;42.782;23.274;2023-01-30T09:25:57;45.03;;;26.00;;
42118;SDS011;27783;42.782;23.274;2023-01-30T09:31:09;39.80;;;23.40;;
42118;SDS011;27783;42.782;23.274;2023-01-30T09:33:36;37.80;;;22.85;;
42118;SDS011;27783;42.782;23.274;2023-01-30T09:36:02;32.22;;;18.55;;
42118;SDS011;27783;42.782;23.274;2023-01-30T09:38:27;34.25;;;17.80;;
42118;SDS011;27783;42.782;23.274;2023-01-30T09:46:28;25.83;;;16.73;;
42118;SDS011;27783;42.782;23.274;2023-01-30T09:49:18;27.17;;;15.70;;
42118;SDS011;27783;42.782;23.274;2023-01-30T09:51:57;20.70;;;13.23;;
42118;SDS011;27783;42.782;23.274;2023-01-30T09:54:30;22.60;;;13.60;;
42118;SDS011;27783;42.782;23.274;2023-01-30T09:57:00;26.08;;;14.65;;
42118;SDS011;27783;42.782;23.274;2023-01-30T10:00:05;24.63;;;14.32;;
42118;SDS011;27783;42.782;23.274;2023-01-30T10:02:40;25.55;;;14.60;;
42118;SDS011;27783;42.782;23.274;2023-01-30T10:05:30;27.42;;;16.38;;
42118;SDS011;27783;42.782;23.274;2023-01-30T10:19:38;25.48;;;14.48;;
42118;SDS011;27783;42.782;23.274;2023-01-30T10:22:41;22.42;;;13.60;;
42118;SDS011;27783;42.782;23.274;2023-01-30T10:27:49;21.65;;;14.82;;
42118;SDS011;27783;42.782;23.274;2023-01-30T10:30:18;25.33;;;15.07;;
42118;SDS011;27783;42.782;23.274;2023-01-30T10:32:50;25.23;;;16.67;;
42118;SDS011;27783;42.782;23.274;2023-01-30T10:35:24;25.33;;;15.43;;
42118;SDS011;27783;42.782;23.274;2023-01-30T10:40:38;26.52;;;16.23;;
42118;SDS011;27783;42.782;23.274;2023-01-30T10:45:40;30.42;;;17.75;;
42118;SDS011;27783;42.782;23.274;2023-01-30T10:48:25;29.20;;;17.70;;
42118;SDS011;27783;42.782;23.274;2023-01-30T10:50:55;26.33;;;15.77;;
42118;SDS011;27783;42.782;23.274;2023-01-30T10:59:14;29.80;;;16.58;;
42118;SDS011;27783;42.782;23.274;2023-01-30T11:01:57;25.00;;;16.70;;
42118;SDS011;27783;42.782;23.274;2023-01-30T11:04:30;31.40;;;15.23;;
42118;SDS011;27783;42.782;23.274;2023-01-30T11:06:59;30.60;;;15.80;;
42118;SDS011;27783;42.782;23.274;2023-01-30T11:12:03;33.53;;;17.92;;
42118;SDS011;27783;42.782;23.274;2023-01-30T11:14:29;39.25;;;20.70;;
42118;SDS011;27783;42.782;23.274;2023-01-30T11:17:36;43.33;;;22.95;;
42118;SDS011;27783;42.782;23.274;2023-01-30T11:20:18;52.42;;;25.73;;
42118;SDS011;27783;42.782;23.274;2023-01-30T11:22:50;63.63;;;29.75;;
42118;SDS011;27783;42.782;23.274;2023-01-30T11:25:24;44.53;;;21.67;;
42118;SDS011;27783;42.782;23.274;2023-01-30T11:27:59;53.58;;;24.13;;
42118;SDS011;27783;42.782;23.274;2023-01-30T11:30:32;58.95;;;31.02;;
42118;SDS011;27783;42.782;23.274;2023-01-30T11:33:10;38.30;;;23.15;;
42118;SDS011;27783;42.782;23.274;2023-01-30T11:35:51;48.97;;;25.42;;
42118;SDS011;27783;42.782;23.274;2023-01-30T11:38:21;106.00;;;45.28;;
42118;SDS011;27783;42.782;23.274;2023-01-30T11:40:48;80.38;;;36.10;;
42118;SDS011;27783;42.782;23.274;2023-01-30T11:43:15;46.03;;;23.27;;
42118;SDS011;27783;42.782;23.274;2023-01-30T11:45:45;76.50;;;36.35;;
42118;SDS011;27783;42.782;23.274;2023-01-30T11:48:14;78.22;;;33.92;;
42118;SDS011;27783;42.782;23.274;2023-01-30T11:50:44;97.82;;;47.10;;
42118;SDS011;27783;42.782;23.274;2023-01-30T11:56:03;55.03;;;27.23;;
42118;SDS011;27783;42.782;23.274;2023-01-30T11:58:41;76.22;;;40.05;;
42118;SDS011;27783;42.782;23.274;2023-01-30T12:01:13;111.70;;;58.42;;
42118;SDS011;27783;42.782;23.274;2023-01-30T12:03:46;49.97;;;23.75;;
42118;SDS011;27783;42.782;23.274;2023-01-30T12:06:20;57.58;;;29.08;;
42118;SDS011;27783;42.782;23.274;2023-01-30T12:08:56;75.57;;;40.60;;
42118;SDS011;27783;42.782;23.274;2023-01-30T12:11:23;49.70;;;26.98;;
42118;SDS011;27783;42.782;23.274;2023-01-30T12:13:51;51.28;;;29.67;;
42118;SDS011;27783;42.782;23.274;2023-01-30T12:16:25;49.08;;;28.27;;
42118;SDS011;27783;42.782;23.274;2023-01-30T12:19:14;33.38;;;20.58;;
42118;SDS011;27783;42.782;23.274;2023-01-30T12:24:17;47.58;;;28.48;;
42118;SDS011;27783;42.782;23.274;2023-01-30T12:27:08;38.85;;;24.65;;
42118;SDS011;27783;42.782;23.274;2023-01-30T12:29:49;40.88;;;23.02;;
42118;SDS011;27783;42.782;23.274;2023-01-30T12:32:17;43.15;;;23.27;;
42118;SDS011;27783;42.782;23.274;2023-01-30T12:34:45;28.17;;;18.10;;
42118;SDS011;27783;42.782;23.274;2023-01-30T12:40:24;47.10;;;25.50;;
42118;SDS011;27783;42.782;23.274;2023-01-30T12:46:00;65.53;;;37.75;;
42118;SDS011;27783;42.782;23.274;2023-01-30T12:48:45;47.65;;;28.10;;
42118;SDS011;27783;42.782;23.274;2023-01-30T13:05:44;68.75;;;35.35;;
42118;SDS011;27783;42.782;23.274;2023-01-30T13:13:48;50.45;;;26.73;;
42118;SDS011;27783;42.782;23.274;2023-01-30T13:16:26;52.05;;;24.67;;
42118;SDS011;27783;42.782;23.274;2023-01-30T13:19:02;54.78;;;30.30;;
42118;SDS011;27783;42.782;23.274;2023-01-30T13:21:33;49.10;;;26.70;;
42118;SDS011;27783;42.782;23.274;2023-01-30T13:26:45;37.45;;;21.90;;
42118;SDS011;27783;42.782;23.274;2023-01-30T13:29:25;34.90;;;20.45;;
42118;SDS011;27783;42.782;23.274;2023-01-30T13:31:55;34.22;;;21.27;;
42118;SDS011;27783;42.782;23.274;2023-01-30T13:34:29;39.70;;;21.98;;
42118;SDS011;27783;42.782;23.274;2023-01-30T13:42:18;84.97;;;47.17;;
42118;SDS011;27783;42.782;23.274;2023-01-30T13:44:49;138.40;;;69.05;;
42118;SDS011;27783;42.782;23.274;2023-01-30T13:49:54;124.32;;;59.72;;
42118;SDS011;27783;42.782;23.274;2023-01-30T13:58:24;66.47;;;33.25;;
42118;SDS011;27783;42.782;23.274;2023-01-30T14:00:37;73.97;;;42.50;;
42118;SDS011;27783;42.782;23.274;2023-01-30T14:11:34;53.05;;;29.00;;
42118;SDS011;27783;42.782;23.274;2023-01-30T14:14:22;47.25;;;26.63;;
42118;SDS011;27783;42.782;23.274;2023-01-30T14:17:05;44.42;;;23.52;;
42118;SDS011;27783;42.782;23.274;2023-01-30T14:19:42;29.55;;;16.75;;
42118;SDS011;27783;42.782;23.274;2023-01-30T14:22:18;28.80;;;19.30;;
42118;SDS011;27783;42.782;23.274;2023-01-30T14:27:49;33.30;;;18.60;;
42118;SDS011;27783;42.782;23.274;2023-01-30T14:33:10;32.53;;;20.20;;
42118;SDS011;27783;42.782;23.274;2023-01-30T14:38:27;36.50;;;22.58;;
42118;SDS011;27783;42.782;23.274;2023-01-30T14:45:58;41.13;;;23.40;;
42118;SDS011;27783;42.782;23.274;2023-01-30T14:51:45;41.83;;;20.67;;
42118;SDS011;27783;42.782;23.274;2023-01-30T15:09:54;38.50;;;18.98;;
42118;SDS011;27783;42.782;23.274;2023-01-30T15:15:13;45.55;;;20.83;;
42118;SDS011;27783;42.782;23.274;2023-01-30T15:21:15;40.10;;;18.75;;
42118;SDS011;27783;42.782;23.274;2023-01-30T15:26:21;37.20;;;18.55;;
42118;SDS011;27783;42.782;23.274;2023-01-30T15:28:55;40.53;;;21.48;;
42118;SDS011;27783;42.782;23.274;2023-01-30T15:31:25;43.13;;;20.60;;
42118;SDS011;27783;42.782;23.274;2023-01-30T15:33:52;37.63;;;19.92;;
42118;SDS011;27783;42.782;23.274;2023-01-30T15:36:25;36.65;;;18.05;;
42118;SDS011;27783;42.782;23.274;2023-01-30T15:39:03;40.15;;;19.33;;
42118;SDS011;27783;42.782;23.274;2023-01-30T15:41:37;44.58;;;20.98;;
42118;SDS011;27783;42.782;23.274;2023-01-30T15:44:08;41.45;;;20.75;;
42118;SDS011;27783;42.782;23.274;2023-01-30T15:53:04;41.45;;;20.70;;
42118;SDS011;27783;42.782;23.274;2023-01-30T15:55:24;43.95;;;21.13;;
42118;SDS011;27783;42.782;23.274;2023-01-30T15:58:03;37.42;;;20.58;;
42118;SDS011;27783;42.782;23.274;2023-01-30T16:00:34;57.08;;;24.83;;
42118;SDS011;27783;42.782;23.274;2023-01-30T16:03:02;48.67;;;24.17;;
42118;SDS011;27783;42.782;23.274;2023-01-30T16:05:30;41.33;;;22.95;;
42118;SDS011;27783;42.782;23.274;2023-01-30T16:07:56;46.80;;;23.63;;
42118;SDS011;27783;42.782;23.274;2023-01-30T16:10:27;60.92;;;25.40;;
42118;SDS011;27783;42.782;23.274;2023-01-30T16:12:54;63.50;;;29.15;;
42118;SDS011;27783;42.782;23.274;2023-01-30T16:17:56;39.95;;;20.58;;
42118;SDS011;27783;42.782;23.274;2023-01-30T16:20:22;39.40;;;21.40;;
42118;SDS011;27783;42.782;23.274;2023-01-30T16:22:47;36.92;;;21.80;;
42118;SDS011;27783;42.782;23.274;2023-01-30T16:25:24;35.28;;;22.13;;
42118;SDS011;27783;42.782;23.274;2023-01-30T16:27:53;86.38;;;42.38;;
42118;SDS011;27783;42.782;23.274;2023-01-30T16:30:26;68.15;;;34.47;;
42118;SDS011;27783;42.782;23.274;2023-01-30T16:32:53;81.75;;;40.95;;
42118;SDS011;27783;42.782;23.274;2023-01-30T16:37:49;36.95;;;17.10;;
42118;SDS011;27783;42.782;23.274;2023-01-30T16:40:16;33.88;;;17.17;;
42118;SDS011;27783;42.782;23.274;2023-01-30T16:53:23;43.95;;;19.05;;
42118;SDS011;27783;42.782;23.274;2023-01-30T16:56:02;41.53;;;21.77;;
42118;SDS011;27783;42.782;23.274;2023-01-30T16:58:35;43.30;;;18.60;;
42118;SDS011;27783;42.782;23.274;2023-01-30T17:01:02;43.75;;;18.92;;
42118;SDS011;27783;42.782;23.274;2023-01-30T17:03:32;39.33;;;18.58;;
42118;SDS011;27783;42.782;23.274;2023-01-30T17:06:24;35.53;;;16.60;;
42118;SDS011;27783;42.782;23.274;2023-01-30T17:08:56;41.60;;;18.55;;
42118;SDS011;27783;42.782;23.274;2023-01-30T17:11:33;39.78;;;17.70;;
42118;SDS011;27783;42.782;23.274;2023-01-30T17:14:15;44.60;;;20.48;;
42118;SDS011;27783;42.782;23.274;2023-01-30T17:16:44;37.55;;;17.63;;
42118;SDS011;27783;42.782;23.274;2023-01-30T17:19:11;45.47;;;19.48;;
42118;SDS011;27783;42.782;23.274;2023-01-30T17:21:41;44.42;;;19.33;;
42118;SDS011;27783;42.782;23.274;2023-01-30T17:24:11;35.53;;;18.30;;
42118;SDS011;27783;42.782;23.274;2023-01-30T17:26:39;43.83;;;19.83;;
42118;SDS011;27783;42.782;23.274;2023-01-30T17:29:08;35.03;;;17.77;;